AAL978 KMEM-KCLT
Flight info
| Callsign | AAL978 |
|---|---|
| Flight time | N/A |
| Altitude | 33000 |
| Route | GOETZ7 DIYAB SYI TAZZA FILPZ4 |
| Aircraft | B38M/M-SDE1FGHILORVWXY/HB1 |
Departure
| Time | 2026-05-05 23:26 |
|---|---|
| Airport | Memphis International Airport (KMEM) |
Arrival
| Time | N/A |
|---|---|
| Airport | Charlotte Douglas International Airport (KCLT) |
| Time | Latitude | Longitude | Altitude | Speed | Heading |
|---|---|---|---|---|---|
| 2026-05-05 22:53 | 35.04229 | -89.98063 | 333 ft | 0 kts | 224° |
| 2026-05-05 23:10 | 35.04230 | -89.98062 | 333 ft | 1 kts | 224° |
| 2026-05-05 23:10 | 35.04241 | -89.98050 | 329 ft | 3 kts | 215° |
| 2026-05-05 23:11 | 35.04258 | -89.98039 | 330 ft | 3 kts | 190° |
| 2026-05-05 23:11 | 35.04264 | -89.98038 | 330 ft | 3 kts | 179° |
| 2026-05-05 23:17 | 35.04263 | -89.98038 | 330 ft | 1 kts | 179° |
| 2026-05-05 23:17 | 35.04243 | -89.98026 | 330 ft | 6 kts | 137° |
| 2026-05-05 23:18 | 35.04200 | -89.97972 | 333 ft | 10 kts | 132° |
| 2026-05-05 23:18 | 35.04191 | -89.97890 | 333 ft | 9 kts | 89° |
| 2026-05-05 23:18 | 35.04178 | -89.97843 | 329 ft | 4 kts | 150° |
| 2026-05-05 23:18 | 35.04133 | -89.97838 | 332 ft | 10 kts | 180° |
| 2026-05-05 23:19 | 35.04046 | -89.97839 | 330 ft | 11 kts | 179° |
| 2026-05-05 23:19 | 35.04016 | -89.97838 | 332 ft | 7 kts | 179° |
| 2026-05-05 23:19 | 35.03943 | -89.97837 | 330 ft | 12 kts | 179° |
| 2026-05-05 23:19 | 35.03889 | -89.97889 | 331 ft | 14 kts | 266° |
| 2026-05-05 23:20 | 35.03887 | -89.98026 | 333 ft | 17 kts | 269° |
| 2026-05-05 23:20 | 35.03885 | -89.98182 | 333 ft | 20 kts | 269° |
| 2026-05-05 23:20 | 35.03882 | -89.98344 | 333 ft | 19 kts | 269° |
| 2026-05-05 23:20 | 35.03880 | -89.98493 | 332 ft | 15 kts | 269° |
| 2026-05-05 23:21 | 35.03894 | -89.98578 | 329 ft | 4 kts | 316° |
| 2026-05-05 23:21 | 35.03919 | -89.98588 | 332 ft | 4 kts | 358° |
| 2026-05-05 23:21 | 35.03982 | -89.98589 | 329 ft | 14 kts | 359° |
| 2026-05-05 23:21 | 35.04114 | -89.98592 | 331 ft | 24 kts | 359° |
| 2026-05-05 23:22 | 35.04273 | -89.98595 | 331 ft | 26 kts | 359° |
| 2026-05-05 23:22 | 35.04429 | -89.98599 | 332 ft | 21 kts | 359° |
| 2026-05-05 23:22 | 35.04574 | -89.98602 | 331 ft | 20 kts | 359° |
| 2026-05-05 23:22 | 35.04694 | -89.98605 | 331 ft | 16 kts | 359° |
| 2026-05-05 23:23 | 35.04813 | -89.98608 | 333 ft | 18 kts | 359° |
| 2026-05-05 23:23 | 35.04899 | -89.98610 | 333 ft | 10 kts | 359° |
| 2026-05-05 23:23 | 35.04926 | -89.98626 | 334 ft | 0 kts | 303° |
| 2026-05-05 23:24 | 35.04932 | -89.98639 | 334 ft | 4 kts | 294° |
| 2026-05-05 23:24 | 35.04933 | -89.98685 | 336 ft | 8 kts | 269° |
| 2026-05-05 23:25 | 35.04924 | -89.98739 | 334 ft | 5 kts | 227° |
| 2026-05-05 23:25 | 35.04900 | -89.98743 | 334 ft | 8 kts | 178° |
| 2026-05-05 23:25 | 35.04662 | -89.98738 | 331 ft | 72 kts | 179° |
| 2026-05-05 23:25 | 35.03906 | -89.98723 | 338 ft | 141 kts | 182° |
| 2026-05-05 23:26 | 35.02870 | -89.98695 | 997 ft | 155 kts | 180° |
| 2026-05-05 23:26 | 35.01758 | -89.98657 | 1924 ft | 162 kts | 182° |
| 2026-05-05 23:26 | 35.00591 | -89.98609 | 2804 ft | 177 kts | 183° |
| 2026-05-05 23:26 | 34.99275 | -89.98538 | 3469 ft | 203 kts | 181° |
| 2026-05-05 23:27 | 34.97851 | -89.97918 | 4107 ft | 234 kts | 159° |
| 2026-05-05 23:27 | 34.96371 | -89.96931 | 4520 ft | 252 kts | 159° |
| 2026-05-05 23:27 | 34.94814 | -89.95881 | 4599 ft | 261 kts | 154° |
| 2026-05-05 23:27 | 34.93510 | -89.94252 | 4663 ft | 279 kts | 127° |
| 2026-05-05 23:28 | 34.92908 | -89.91958 | 4890 ft | 294 kts | 98° |
| 2026-05-05 23:28 | 34.92832 | -89.89453 | 5917 ft | 297 kts | 98° |
| 2026-05-05 23:28 | 34.92706 | -89.86903 | 6893 ft | 305 kts | 97° |
| 2026-05-05 23:28 | 34.92776 | -89.84276 | 7806 ft | 318 kts | 78° |
| 2026-05-05 23:29 | 34.93650 | -89.81793 | 8765 ft | 323 kts | 57° |
| 2026-05-05 23:29 | 34.94806 | -89.79402 | 9701 ft | 331 kts | 57° |
| 2026-05-05 23:29 | 34.95975 | -89.76959 | 10560 ft | 339 kts | 56° |
| 2026-05-05 23:29 | 34.97182 | -89.74419 | 11244 ft | 352 kts | 57° |
| 2026-05-05 23:30 | 34.98398 | -89.71831 | 12124 ft | 356 kts | 56° |
| 2026-05-05 23:30 | 34.99643 | -89.69183 | 13015 ft | 363 kts | 56° |
| 2026-05-05 23:30 | 35.00914 | -89.66481 | 13847 ft | 370 kts | 55° |
| 2026-05-05 23:30 | 35.02202 | -89.63737 | 14656 ft | 375 kts | 55° |
| 2026-05-05 23:31 | 35.03506 | -89.60959 | 15466 ft | 380 kts | 55° |
| 2026-05-05 23:31 | 35.04827 | -89.58143 | 16254 ft | 385 kts | 55° |
| 2026-05-05 23:31 | 35.06167 | -89.55284 | 17040 ft | 390 kts | 55° |
| 2026-05-05 23:31 | 35.07522 | -89.52391 | 17817 ft | 395 kts | 55° |
| 2026-05-05 23:32 | 35.08891 | -89.49466 | 18519 ft | 400 kts | 55° |
| 2026-05-05 23:32 | 35.10277 | -89.46502 | 19191 ft | 403 kts | 55° |
| 2026-05-05 23:32 | 35.11674 | -89.43512 | 19868 ft | 407 kts | 55° |
| 2026-05-05 23:32 | 35.13081 | -89.40497 | 20525 ft | 410 kts | 55° |
| 2026-05-05 23:33 | 35.14503 | -89.37450 | 21174 ft | 414 kts | 55° |
| 2026-05-05 23:33 | 35.15932 | -89.34383 | 21834 ft | 417 kts | 55° |
| 2026-05-05 23:33 | 35.17375 | -89.31283 | 22457 ft | 421 kts | 55° |
| 2026-05-05 23:33 | 35.18810 | -89.28198 | 23059 ft | 425 kts | 55° |
| 2026-05-05 23:34 | 35.20275 | -89.25046 | 23617 ft | 428 kts | 55° |
| 2026-05-05 23:34 | 35.21667 | -89.21785 | 24100 ft | 437 kts | 65° |
| 2026-05-05 23:34 | 35.22594 | -89.18226 | 24635 ft | 441 kts | 68° |
| 2026-05-05 23:34 | 35.23530 | -89.14629 | 25037 ft | 447 kts | 68° |
| 2026-05-05 23:35 | 35.24426 | -89.10969 | 25511 ft | 453 kts | 74° |
| 2026-05-05 23:35 | 35.24942 | -89.07145 | 26014 ft | 457 kts | 78° |
| 2026-05-05 23:35 | 35.25445 | -89.03286 | 26453 ft | 461 kts | 78° |
| 2026-05-05 23:35 | 35.25951 | -88.99391 | 26885 ft | 465 kts | 78° |
| 2026-05-05 23:36 | 35.26458 | -88.95473 | 27320 ft | 468 kts | 77° |
| 2026-05-05 23:36 | 35.26969 | -88.91512 | 27740 ft | 472 kts | 77° |
| 2026-05-05 23:36 | 35.27482 | -88.87520 | 28167 ft | 476 kts | 77° |
| 2026-05-05 23:36 | 35.27997 | -88.83501 | 28607 ft | 479 kts | 77° |
| 2026-05-05 23:37 | 35.28512 | -88.79472 | 29157 ft | 479 kts | 77° |
| 2026-05-05 23:37 | 35.29022 | -88.75476 | 29527 ft | 484 kts | 77° |
| 2026-05-05 23:37 | 35.29541 | -88.71388 | 29914 ft | 487 kts | 77° |
| 2026-05-05 23:37 | 35.30063 | -88.67276 | 30261 ft | 490 kts | 77° |
| 2026-05-05 23:38 | 35.30586 | -88.63135 | 30559 ft | 494 kts | 77° |
| 2026-05-05 23:38 | 35.31113 | -88.58959 | 30884 ft | 497 kts | 77° |
| 2026-05-05 23:38 | 35.31641 | -88.54756 | 31214 ft | 501 kts | 77° |
| 2026-05-05 23:38 | 35.32171 | -88.50525 | 31529 ft | 504 kts | 76° |
| 2026-05-05 23:39 | 35.32703 | -88.46273 | 31898 ft | 505 kts | 76° |
| 2026-05-05 23:39 | 35.33233 | -88.42021 | 32352 ft | 505 kts | 76° |
| 2026-05-05 23:39 | 35.33761 | -88.37773 | 32730 ft | 506 kts | 76° |
| 2026-05-05 23:39 | 35.34291 | -88.33495 | 32889 ft | 509 kts | 76° |
| 2026-05-05 23:40 | 35.35338 | -88.25001 | 32865 ft | 506 kts | 76° |
| 2026-05-05 23:40 | 35.36384 | -88.16464 | 32863 ft | 506 kts | 76° |
| 2026-05-05 23:41 | 35.37425 | -88.07924 | 32864 ft | 506 kts | 76° |
| 2026-05-05 23:41 | 35.38455 | -87.99421 | 32882 ft | 503 kts | 76° |
| 2026-05-05 23:42 | 35.39477 | -87.90934 | 32884 ft | 503 kts | 76° |
| 2026-05-05 23:42 | 35.40495 | -87.82433 | 32887 ft | 503 kts | 76° |
| 2026-05-05 23:43 | 35.41497 | -87.73999 | 32893 ft | 503 kts | 76° |
| 2026-05-05 23:43 | 35.42500 | -87.65515 | 32893 ft | 502 kts | 76° |
| 2026-05-05 23:44 | 35.43497 | -87.57037 | 32893 ft | 501 kts | 76° |
| 2026-05-05 23:44 | 35.44486 | -87.48563 | 32896 ft | 501 kts | 76° |
| 2026-05-05 23:45 | 35.45468 | -87.40097 | 32896 ft | 502 kts | 76° |
| 2026-05-05 23:45 | 35.46447 | -87.31609 | 32908 ft | 502 kts | 76° |
| 2026-05-05 23:46 | 35.47417 | -87.23143 | 32907 ft | 501 kts | 76° |
| 2026-05-05 23:46 | 35.48382 | -87.14664 | 32863 ft | 502 kts | 76° |
| 2026-05-05 23:47 | 35.49337 | -87.06224 | 32867 ft | 502 kts | 76° |
| 2026-05-05 23:47 | 35.50293 | -86.97724 | 32885 ft | 502 kts | 76° |
| 2026-05-05 23:48 | 35.51241 | -86.89233 | 32887 ft | 501 kts | 76° |
| 2026-05-05 23:48 | 35.52182 | -86.80752 | 32891 ft | 501 kts | 76° |
| 2026-05-05 23:49 | 35.53117 | -86.72264 | 32888 ft | 501 kts | 77° |
| 2026-05-05 23:49 | 35.54050 | -86.63763 | 32891 ft | 501 kts | 77° |
| 2026-05-05 23:50 | 35.54975 | -86.55280 | 32889 ft | 501 kts | 77° |
| 2026-05-05 23:50 | 35.55889 | -86.46841 | 32878 ft | 501 kts | 77° |
| 2026-05-05 23:51 | 35.57089 | -86.38439 | 32888 ft | 499 kts | 73° |
| 2026-05-05 23:51 | 35.58331 | -86.30062 | 32884 ft | 499 kts | 73° |
| 2026-05-05 23:52 | 35.59560 | -86.21663 | 32917 ft | 499 kts | 73° |
| 2026-05-05 23:52 | 35.60781 | -86.13284 | 32920 ft | 497 kts | 73° |
| 2026-05-05 23:53 | 35.61992 | -86.04923 | 32917 ft | 497 kts | 73° |
| 2026-05-05 23:53 | 35.63198 | -85.96559 | 32917 ft | 497 kts | 73° |
| 2026-05-05 23:54 | 35.64400 | -85.88179 | 32915 ft | 497 kts | 73° |
| 2026-05-05 23:54 | 35.65586 | -85.79870 | 32916 ft | 497 kts | 73° |
| 2026-05-05 23:55 | 35.66775 | -85.71494 | 32914 ft | 497 kts | 73° |
| 2026-05-05 23:55 | 35.67958 | -85.63115 | 32949 ft | 497 kts | 74° |
| 2026-05-05 23:56 | 35.69136 | -85.54735 | 32927 ft | 497 kts | 74° |
| 2026-05-05 23:56 | 35.70308 | -85.46350 | 32914 ft | 497 kts | 74° |
| 2026-05-05 23:57 | 35.71473 | -85.37966 | 32931 ft | 496 kts | 75° |
| 2026-05-05 23:57 | 35.72630 | -85.29600 | 32926 ft | 496 kts | 75° |
| 2026-05-05 23:58 | 35.73774 | -85.21289 | 32927 ft | 496 kts | 75° |
| 2026-05-05 23:58 | 35.74920 | -85.12914 | 32923 ft | 496 kts | 75° |
| 2026-05-05 23:59 | 35.76062 | -85.04525 | 32933 ft | 494 kts | 75° |
| 2026-05-05 23:59 | 35.77192 | -84.96167 | 32928 ft | 495 kts | 74° |
| 2026-05-06 00:00 | 35.78318 | -84.87808 | 32937 ft | 495 kts | 74° |
| 2026-05-06 00:00 | 35.79440 | -84.79435 | 32928 ft | 495 kts | 74° |
| 2026-05-06 00:01 | 35.80550 | -84.71117 | 32922 ft | 495 kts | 74° |
| 2026-05-06 00:01 | 35.81507 | -84.62698 | 32925 ft | 499 kts | 80° |
| 2026-05-06 00:02 | 35.82059 | -84.54181 | 32929 ft | 497 kts | 79° |
| 2026-05-06 00:02 | 35.82666 | -84.45695 | 32935 ft | 497 kts | 79° |
| 2026-05-06 00:03 | 35.83273 | -84.37206 | 32924 ft | 497 kts | 79° |
| 2026-05-06 00:03 | 35.83875 | -84.28710 | 32939 ft | 497 kts | 79° |
| 2026-05-06 00:04 | 35.84469 | -84.20227 | 32927 ft | 496 kts | 79° |
| 2026-05-06 00:04 | 35.85054 | -84.11814 | 32934 ft | 496 kts | 79° |
| 2026-05-06 00:05 | 35.85924 | -83.99108 | 32940 ft | 496 kts | 79° |
| 2026-05-06 00:06 | 35.86402 | -83.92055 | 32927 ft | 496 kts | 79° |
| 2026-05-06 00:06 | 35.86969 | -83.83596 | 32920 ft | 493 kts | 79° |
| 2026-05-06 00:07 | 35.87528 | -83.75172 | 32924 ft | 493 kts | 79° |
| 2026-05-06 00:07 | 35.88081 | -83.66751 | 32925 ft | 492 kts | 79° |
| 2026-05-06 00:08 | 35.88625 | -83.58380 | 32921 ft | 492 kts | 79° |
| 2026-05-06 00:08 | 35.89165 | -83.49963 | 32920 ft | 491 kts | 80° |
| 2026-05-06 00:08 | 35.89039 | -83.45744 | 32876 ft | 497 kts | 97° |
| 2026-05-06 00:09 | 35.88175 | -83.41606 | 32951 ft | 500 kts | 103° |
| 2026-05-06 00:09 | 35.86388 | -83.33306 | 32917 ft | 500 kts | 103° |
| 2026-05-06 00:10 | 35.84537 | -83.24976 | 32707 ft | 515 kts | 103° |
| 2026-05-06 00:10 | 35.83588 | -83.20732 | 32367 ft | 522 kts | 103° |
| 2026-05-06 00:10 | 35.82622 | -83.16403 | 32067 ft | 525 kts | 103° |
| 2026-05-06 00:10 | 35.81662 | -83.12065 | 31784 ft | 521 kts | 103° |
| 2026-05-06 00:11 | 35.80709 | -83.07770 | 31501 ft | 517 kts | 103° |
| 2026-05-06 00:11 | 35.79761 | -83.03510 | 31208 ft | 514 kts | 103° |
| 2026-05-06 00:11 | 35.78817 | -82.99274 | 30947 ft | 511 kts | 104° |
| 2026-05-06 00:11 | 35.77879 | -82.95070 | 30669 ft | 508 kts | 104° |
| 2026-05-06 00:12 | 35.76943 | -82.90882 | 30377 ft | 505 kts | 104° |
| 2026-05-06 00:12 | 35.76011 | -82.86720 | 30114 ft | 503 kts | 104° |
| 2026-05-06 00:12 | 35.75082 | -82.82582 | 29832 ft | 500 kts | 104° |
| 2026-05-06 00:12 | 35.74157 | -82.78469 | 29511 ft | 496 kts | 104° |
| 2026-05-06 00:13 | 35.73251 | -82.74445 | 29235 ft | 490 kts | 104° |
| 2026-05-06 00:13 | 35.72340 | -82.70409 | 28922 ft | 485 kts | 104° |
| 2026-05-06 00:13 | 35.71432 | -82.66416 | 28627 ft | 482 kts | 104° |
| 2026-05-06 00:13 | 35.70529 | -82.62451 | 28319 ft | 479 kts | 104° |
| 2026-05-06 00:14 | 35.69633 | -82.58518 | 28031 ft | 476 kts | 105° |
| 2026-05-06 00:14 | 35.68740 | -82.54607 | 27741 ft | 474 kts | 105° |
| 2026-05-06 00:14 | 35.67851 | -82.50719 | 27460 ft | 471 kts | 105° |
| 2026-05-06 00:14 | 35.66978 | -82.46906 | 27159 ft | 469 kts | 105° |
| 2026-05-06 00:15 | 35.66095 | -82.43058 | 26863 ft | 466 kts | 105° |
| 2026-05-06 00:15 | 35.65217 | -82.39235 | 26546 ft | 464 kts | 105° |
| 2026-05-06 00:15 | 35.64340 | -82.35422 | 25860 ft | 466 kts | 105° |
| 2026-05-06 00:15 | 35.63453 | -82.31576 | 25191 ft | 468 kts | 105° |
| 2026-05-06 00:16 | 35.62566 | -82.27735 | 24648 ft | 465 kts | 106° |
| 2026-05-06 00:16 | 35.61685 | -82.23928 | 24100 ft | 461 kts | 106° |
| 2026-05-06 00:16 | 35.60811 | -82.20160 | 23614 ft | 456 kts | 106° |
| 2026-05-06 00:16 | 35.59944 | -82.16425 | 22999 ft | 452 kts | 106° |
| 2026-05-06 00:17 | 35.59084 | -82.12728 | 22467 ft | 447 kts | 106° |
| 2026-05-06 00:17 | 35.58233 | -82.09075 | 21972 ft | 441 kts | 106° |
| 2026-05-06 00:17 | 35.57446 | -82.05447 | 21303 ft | 439 kts | 102° |
| 2026-05-06 00:17 | 35.56802 | -82.01764 | 20357 ft | 441 kts | 102° |
| 2026-05-06 00:18 | 35.56144 | -81.98106 | 19538 ft | 436 kts | 103° |
| 2026-05-06 00:18 | 35.55482 | -81.94491 | 18708 ft | 432 kts | 103° |
| 2026-05-06 00:18 | 35.54820 | -81.90901 | 17797 ft | 429 kts | 103° |
| 2026-05-06 00:18 | 35.54163 | -81.87352 | 16910 ft | 424 kts | 103° |
| 2026-05-06 00:19 | 35.53511 | -81.83833 | 16051 ft | 420 kts | 104° |
| 2026-05-06 00:19 | 35.52866 | -81.80361 | 15236 ft | 415 kts | 104° |
| 2026-05-06 00:19 | 35.52235 | -81.76970 | 14450 ft | 409 kts | 104° |
| 2026-05-06 00:19 | 35.51613 | -81.73582 | 13651 ft | 404 kts | 104° |
| 2026-05-06 00:20 | 35.51004 | -81.70233 | 12876 ft | 397 kts | 104° |
| 2026-05-06 00:20 | 35.50409 | -81.66970 | 12241 ft | 387 kts | 104° |
| 2026-05-06 00:20 | 35.49828 | -81.63788 | 11635 ft | 377 kts | 104° |
| 2026-05-06 00:20 | 35.49262 | -81.60684 | 11083 ft | 367 kts | 103° |
| 2026-05-06 00:21 | 35.49152 | -81.57638 | 10778 ft | 351 kts | 82° |
| 2026-05-06 00:21 | 35.49476 | -81.54756 | 10600 ft | 332 kts | 83° |
| 2026-05-06 00:21 | 35.49753 | -81.51968 | 10431 ft | 327 kts | 83° |
| 2026-05-06 00:21 | 35.50021 | -81.49226 | 10250 ft | 320 kts | 83° |
| 2026-05-06 00:22 | 35.50283 | -81.46544 | 10046 ft | 315 kts | 83° |
| 2026-05-06 00:22 | 35.50543 | -81.43883 | 9720 ft | 312 kts | 83° |
| 2026-05-06 00:22 | 35.50799 | -81.41254 | 9363 ft | 308 kts | 84° |
| 2026-05-06 00:22 | 35.50912 | -81.38653 | 9054 ft | 303 kts | 99° |
| 2026-05-06 00:23 | 35.50407 | -81.36182 | 8801 ft | 297 kts | 111° |
| 2026-05-06 00:23 | 35.49755 | -81.33783 | 8570 ft | 296 kts | 112° |
| 2026-05-06 00:23 | 35.49112 | -81.31390 | 8319 ft | 294 kts | 112° |
| 2026-05-06 00:23 | 35.48477 | -81.29016 | 8033 ft | 290 kts | 112° |
| 2026-05-06 00:24 | 35.47862 | -81.26700 | 7725 ft | 289 kts | 112° |
| 2026-05-06 00:24 | 35.47247 | -81.24352 | 7421 ft | 288 kts | 112° |
| 2026-05-06 00:24 | 35.46645 | -81.22033 | 7117 ft | 282 kts | 112° |
| 2026-05-06 00:24 | 35.46065 | -81.19759 | 6823 ft | 276 kts | 112° |
| 2026-05-06 00:25 | 35.45514 | -81.17531 | 6529 ft | 270 kts | 112° |
| 2026-05-06 00:25 | 35.44981 | -81.15336 | 6236 ft | 266 kts | 112° |
| 2026-05-06 00:25 | 35.44456 | -81.13171 | 5971 ft | 264 kts | 112° |
| 2026-05-06 00:25 | 35.43951 | -81.11049 | 5722 ft | 261 kts | 112° |
| 2026-05-06 00:26 | 35.43445 | -81.08926 | 5465 ft | 258 kts | 112° |
| 2026-05-06 00:26 | 35.42941 | -81.06831 | 5222 ft | 255 kts | 112° |
| 2026-05-06 00:26 | 35.42455 | -81.04770 | 4998 ft | 248 kts | 112° |
| 2026-05-06 00:26 | 35.41987 | -81.02785 | 4745 ft | 238 kts | 112° |
| 2026-05-06 00:27 | 35.41539 | -81.00871 | 4481 ft | 229 kts | 112° |
| 2026-05-06 00:27 | 35.41107 | -80.99028 | 4205 ft | 221 kts | 112° |
| 2026-05-06 00:27 | 35.40581 | -80.97317 | 3901 ft | 207 kts | 133° |
| 2026-05-06 00:27 | 35.39468 | -80.96454 | 3706 ft | 182 kts | 171° |
| 2026-05-06 00:28 | 35.38255 | -80.96389 | 3503 ft | 169 kts | 186° |
| 2026-05-06 00:28 | 35.37093 | -80.96506 | 3300 ft | 163 kts | 186° |
| 2026-05-06 00:28 | 35.35970 | -80.96440 | 3282 ft | 163 kts | 176° |
| 2026-05-06 00:28 | 35.34862 | -80.96320 | 3185 ft | 151 kts | 179° |
| 2026-05-06 00:29 | 35.33861 | -80.96256 | 2971 ft | 138 kts | 181° |
| 2026-05-06 00:29 | 35.32944 | -80.96223 | 2764 ft | 127 kts | 180° |
| 2026-05-06 00:29 | 35.32071 | -80.96128 | 2703 ft | 127 kts | 178° |
| 2026-05-06 00:29 | 35.31191 | -80.96058 | 2512 ft | 126 kts | 177° |
| 2026-05-06 00:30 | 35.30441 | -80.95981 | 2357 ft | 125 kts | 178° |